createdAt,value
2016-08-21T00:00:27.557Z,99.99
2016-08-21T00:01:28.298Z,99.99
2016-08-21T00:02:27.614Z,99.99
2016-08-21T00:03:27.645Z,99.99
2016-08-21T00:04:27.664Z,99.99
2016-08-21T00:05:28.375Z,99.99
2016-08-21T00:06:27.687Z,99.99
2016-08-21T00:07:28.432Z,99.99
2016-08-21T00:08:28.453Z,99.99
2016-08-21T00:09:27.843Z,99.99
2016-08-21T00:10:27.784Z,99.99
2016-08-21T00:11:27.804Z,99.99
2016-08-21T00:12:27.832Z,99.99
2016-08-21T00:13:28.550Z,99.99
2016-08-21T00:14:27.876Z,99.99
2016-08-21T00:15:28.593Z,99.99
2016-08-21T00:16:28.631Z,99.99
2016-08-21T00:17:28.642Z,99.99
2016-08-21T00:18:27.991Z,99.99
2016-08-21T00:19:28.692Z,99.99
2016-08-21T00:20:28.013Z,99.99
2016-08-21T00:21:28.023Z,99.99
2016-08-21T00:22:28.747Z,99.99
2016-08-21T00:23:28.764Z,99.99
2016-08-21T00:24:28.081Z,99.99
2016-08-21T00:25:28.125Z,99.99
2016-08-21T00:26:28.831Z,99.99
2016-08-21T00:27:28.164Z,99.99
2016-08-21T00:28:28.183Z,99.99
2016-08-21T00:29:28.891Z,99.99
2016-08-21T00:30:28.932Z,99.99
2016-08-21T00:31:28.953Z,99.99
2016-08-21T00:32:28.270Z,99.99
2016-08-21T00:33:28.996Z,99.99
2016-08-21T00:34:28.303Z,99.99
2016-08-21T00:35:28.340Z,99.99
2016-08-21T00:36:28.343Z,99.99
2016-08-21T00:37:29.084Z,99.99
2016-08-21T00:38:28.393Z,99.99
2016-08-21T00:39:29.134Z,99.99
2016-08-21T00:40:29.161Z,99.99
2016-08-21T00:41:29.173Z,99.99
2016-08-21T00:42:28.481Z,99.99
2016-08-21T00:43:28.505Z,99.99
2016-08-21T00:44:29.252Z,99.99
2016-08-21T00:45:29.252Z,99.99
2016-08-21T00:46:29.292Z,99.99
2016-08-21T00:47:29.298Z,99.99
2016-08-21T00:48:29.371Z,99.99
2016-08-21T00:49:28.657Z,99.99
2016-08-21T00:50:29.378Z,99.99
2016-08-21T00:51:29.395Z,99.99
2016-08-21T00:52:29.422Z,99.99
2016-08-21T00:53:28.724Z,99.99
2016-08-21T00:54:29.460Z,99.99
2016-08-21T00:55:29.493Z,99.99
2016-08-21T00:56:29.504Z,99.99
2016-08-21T00:57:29.521Z,99.99
2016-08-21T00:58:29.542Z,99.99
2016-08-21T00:59:29.682Z,99.99
2016-08-21T01:00:29.592Z,99.99
2016-08-21T01:01:29.614Z,99.99
2016-08-21T01:02:29.632Z,99.99
2016-08-21T01:03:29.033Z,99.99
2016-08-21T01:04:29.684Z,99.99
2016-08-21T01:05:29.702Z,99.99
2016-08-21T01:06:29.731Z,99.99
2016-08-21T01:07:29.752Z,99.99
2016-08-21T01:08:29.764Z,99.99
2016-08-21T01:09:29.077Z,99.99
2016-08-21T01:10:29.885Z,99.99
2016-08-21T01:11:29.844Z,99.99
2016-08-21T01:12:29.152Z,99.99
2016-08-21T01:13:29.178Z,99.99
2016-08-21T01:14:29.204Z,99.99
2016-08-21T01:15:29.923Z,99.99
2016-08-21T01:16:29.237Z,99.99
2016-08-21T01:17:29.972Z,99.99
2016-08-21T01:18:29.986Z,99.99
2016-08-21T01:19:29.303Z,99.99
2016-08-21T01:20:30.034Z,99.99
2016-08-21T01:21:30.092Z,99.99
2016-08-21T01:22:30.073Z,99.99
2016-08-21T01:23:30.104Z,99.99
2016-08-21T01:24:30.130Z,99.99
2016-08-21T01:25:30.158Z,99.99
2016-08-21T01:26:30.169Z,99.99
2016-08-21T01:27:30.188Z,99.99
2016-08-21T01:28:29.507Z,99.99
2016-08-21T01:29:30.222Z,99.99
2016-08-21T01:30:30.262Z,99.99
2016-08-21T01:31:30.291Z,99.99
2016-08-21T01:32:30.411Z,99.99
2016-08-21T01:33:29.613Z,99.99
2016-08-21T01:34:30.333Z,99.99
2016-08-21T01:35:29.662Z,99.99
2016-08-21T01:36:30.392Z,99.99
2016-08-21T01:37:29.693Z,99.99
2016-08-21T01:38:30.422Z,99.99
2016-08-21T01:39:29.736Z,99.99
2016-08-21T01:40:29.762Z,99.99
2016-08-21T01:41:30.633Z,99.99
2016-08-21T01:42:29.808Z,99.99
2016-08-21T01:43:30.611Z,99.99
2016-08-21T01:44:30.571Z,99.99
2016-08-21T01:45:30.630Z,99.99
2016-08-21T01:46:30.594Z,99.99
2016-08-21T01:47:30.611Z,99.99
2016-08-21T01:48:29.944Z,99.99
2016-08-21T01:49:30.662Z,99.99
2016-08-21T01:50:29.985Z,99.99
2016-08-21T01:51:30.701Z,99.99
2016-08-21T01:52:30.725Z,99.99
2016-08-21T01:53:30.742Z,99.99
2016-08-21T01:54:30.808Z,99.99
2016-08-21T01:55:30.163Z,99.99
2016-08-21T01:56:30.821Z,99.99
2016-08-21T01:57:30.844Z,99.99
2016-08-21T01:58:30.910Z,99.99
2016-08-21T01:59:30.173Z,99.99
2016-08-21T02:00:30.899Z,99.99
2016-08-21T02:01:30.919Z,99.99
2016-08-21T02:02:30.937Z,99.99
2016-08-21T02:03:30.269Z,99.99
2016-08-21T02:04:30.985Z,99.99
2016-08-21T02:05:31.010Z,99.99
2016-08-21T02:06:30.311Z,99.99
2016-08-21T02:07:31.034Z,99.99
2016-08-21T02:08:30.364Z,99.99
2016-08-21T02:09:31.099Z,99.99
2016-08-21T02:10:30.418Z,99.99
2016-08-21T02:11:31.141Z,99.99
2016-08-21T02:12:31.147Z,99.99
2016-08-21T02:13:30.474Z,99.99
2016-08-21T02:14:30.500Z,99.99
2016-08-21T02:15:31.228Z,99.99
2016-08-21T02:16:30.532Z,99.99
2016-08-21T02:17:31.260Z,99.99
2016-08-21T02:18:31.281Z,99.99
2016-08-21T02:19:31.299Z,99.99
2016-08-21T02:20:31.338Z,99.99
2016-08-21T02:21:30.642Z,99.99
2016-08-21T02:22:30.677Z,99.99
2016-08-21T02:23:31.395Z,99.99
2016-08-21T02:24:30.719Z,99.99
2016-08-21T02:25:30.719Z,99.99
2016-08-21T02:26:31.454Z,99.99
2016-08-21T02:27:31.488Z,99.99
2016-08-21T02:28:30.803Z,99.99
2016-08-21T02:29:31.522Z,99.99
2016-08-21T02:30:30.833Z,99.99
2016-08-21T02:31:30.862Z,99.99
2016-08-21T02:32:31.603Z,99.99
2016-08-21T02:33:31.666Z,99.99
2016-08-21T02:34:31.643Z,99.99
2016-08-21T02:35:31.654Z,99.67
2016-08-21T02:36:30.972Z,99.99
2016-08-21T02:37:31.700Z,99.99
2016-08-21T02:38:31.078Z,99.96
2016-08-21T02:39:31.753Z,99.48
2016-08-21T02:40:31.059Z,99.86
2016-08-21T02:41:31.782Z,99.76
2016-08-21T02:42:31.812Z,99.99
2016-08-21T02:43:31.119Z,99.19
2016-08-21T02:44:31.134Z,99.29
2016-08-21T02:45:31.869Z,99
2016-08-21T02:46:31.186Z,99.19
2016-08-21T02:47:31.913Z,98.71
2016-08-21T02:48:31.942Z,98.71
2016-08-21T02:49:31.966Z,98.71
2016-08-21T02:50:31.990Z,98.61
2016-08-21T02:51:31.301Z,98.9
2016-08-21T02:52:31.321Z,99
2016-08-21T02:53:32.174Z,99.1
2016-08-21T02:54:32.067Z,98.9
2016-08-21T02:55:32.090Z,98.9
2016-08-21T02:56:32.111Z,99
2016-08-21T02:57:32.192Z,99.1
2016-08-21T02:58:31.452Z,99.48
2016-08-21T02:59:32.182Z,99.1
2016-08-21T03:00:32.199Z,99.19
2016-08-21T03:01:32.219Z,99.86
2016-08-21T03:02:32.251Z,99.67
2016-08-21T03:03:31.566Z,99.76
2016-08-21T03:04:32.290Z,99.48
2016-08-21T03:05:32.311Z,99.62
2016-08-21T03:06:32.351Z,99.43
2016-08-21T03:07:32.361Z,99.48
2016-08-21T03:08:32.403Z,99.99
2016-08-21T03:09:31.694Z,99.99
2016-08-21T03:10:32.472Z,99.99
2016-08-21T03:11:31.741Z,99.99
2016-08-21T03:12:31.774Z,99.9
2016-08-21T03:13:32.500Z,99.9
2016-08-21T03:14:32.511Z,99.99
2016-08-21T03:15:31.827Z,99.99
2016-08-21T03:16:31.855Z,99.99
2016-08-21T03:17:31.884Z,99.99
2016-08-21T03:18:32.604Z,99.99
2016-08-21T03:19:32.000Z,99.99
2016-08-21T03:20:32.646Z,99.99
2016-08-21T03:21:31.981Z,99.99
2016-08-21T03:22:31.985Z,99.99
2016-08-21T03:23:32.718Z,99.99
2016-08-21T03:24:32.022Z,99.99
2016-08-21T03:25:32.742Z,99.99
2016-08-21T03:26:32.769Z,99.99
2016-08-21T03:27:32.802Z,99.99
2016-08-21T03:28:32.117Z,99.99
2016-08-21T03:29:32.844Z,99.99
2016-08-21T03:30:32.151Z,99.99
2016-08-21T03:31:32.178Z,99.99
2016-08-21T03:32:32.211Z,99.99
2016-08-21T03:33:32.232Z,99.99
2016-08-21T03:34:32.241Z,99.99
2016-08-21T03:35:32.974Z,99.99
2016-08-21T03:36:33.001Z,99.99
2016-08-21T03:37:32.307Z,99.99
2016-08-21T03:38:32.392Z,99.99
2016-08-21T03:39:32.362Z,99.99
2016-08-21T03:40:32.371Z,99.99
2016-08-21T03:41:32.403Z,99.99
2016-08-21T03:42:32.414Z,99.99
2016-08-21T03:43:32.453Z,99.99
2016-08-21T03:44:33.183Z,99.99
2016-08-21T03:45:32.482Z,99.99
2016-08-21T03:46:32.504Z,99.99
2016-08-21T03:47:33.242Z,99.99
2016-08-21T03:48:33.252Z,99.99
2016-08-21T03:49:33.283Z,99.99
2016-08-21T03:50:32.592Z,99.99
2016-08-21T03:51:33.314Z,99.99
2016-08-21T03:52:32.623Z,99.99
2016-08-21T03:53:32.656Z,99.99
2016-08-21T03:54:33.394Z,99.99
2016-08-21T03:55:33.422Z,99.99
2016-08-21T03:56:32.721Z,99.99
2016-08-21T03:57:32.735Z,99.99
2016-08-21T03:58:33.473Z,99.99
2016-08-21T03:59:32.785Z,99.99
2016-08-21T04:00:33.523Z,99.99
2016-08-21T04:01:32.833Z,99.99
2016-08-21T04:02:32.852Z,99.99
2016-08-21T04:03:32.867Z,99.99
2016-08-21T04:04:32.892Z,99.99
2016-08-21T04:05:32.908Z,99.99
2016-08-21T04:06:32.934Z,99.99
2016-08-21T04:07:33.684Z,99.99
2016-08-21T04:08:32.979Z,99.99
2016-08-21T04:09:33.801Z,99.99
2016-08-21T04:10:33.019Z,99.99
2016-08-21T04:11:33.036Z,99.99
2016-08-21T04:12:33.053Z,99.99
2016-08-21T04:13:33.078Z,99.99
2016-08-21T04:14:33.201Z,99.99
2016-08-21T04:15:33.842Z,99.99
2016-08-21T04:16:33.854Z,99.99
2016-08-21T04:17:33.161Z,99.99
2016-08-21T04:18:33.192Z,99.99
2016-08-21T04:19:33.931Z,99.99
2016-08-21T04:20:33.222Z,99.99
2016-08-21T04:21:33.238Z,99.99
2016-08-21T04:22:34.029Z,99.99
2016-08-21T04:23:34.002Z,99.99
2016-08-21T04:24:33.322Z,99.99
2016-08-21T04:25:33.343Z,99.99
2016-08-21T04:26:33.362Z,99.99
2016-08-21T04:27:33.481Z,99.99
2016-08-21T04:28:33.393Z,99.99
2016-08-21T04:29:34.201Z,99.99
2016-08-21T04:30:33.444Z,99.99
2016-08-21T04:31:33.459Z,99.99
2016-08-21T04:32:33.482Z,99.99
2016-08-21T04:33:34.242Z,99.99
2016-08-21T04:34:33.526Z,99.99
2016-08-21T04:35:33.543Z,99.99
2016-08-21T04:36:33.564Z,99.99
2016-08-21T04:37:33.591Z,99.99
2016-08-21T04:38:33.713Z,99.99
2016-08-21T04:39:33.632Z,99.99
2016-08-21T04:40:34.361Z,99.99
2016-08-21T04:41:34.393Z,99.99
2016-08-21T04:42:34.493Z,99.99
2016-08-21T04:43:34.418Z,99.99
2016-08-21T04:44:34.445Z,99.99
2016-08-21T04:45:34.471Z,99.99
2016-08-21T04:46:33.783Z,99.99
2016-08-21T04:47:34.498Z,99.99
2016-08-21T04:48:33.823Z,99.99
2016-08-21T04:49:34.833Z,99.99
2016-08-21T04:50:34.562Z,99.99
2016-08-21T04:51:33.887Z,99.99
2016-08-21T04:52:34.623Z,99.99
2016-08-21T04:53:34.641Z,99.99
2016-08-21T04:54:33.953Z,99.99
2016-08-21T04:55:34.880Z,99.99
2016-08-21T04:56:34.698Z,99.99
2016-08-21T04:57:34.723Z,99.99
2016-08-21T04:58:34.731Z,99.9
2016-08-21T04:59:34.773Z,99.62
2016-08-21T05:00:34.789Z,98.81
2016-08-21T05:01:34.801Z,97.85
2016-08-21T05:02:34.111Z,98.04
2016-08-21T05:03:34.843Z,97.37
2016-08-21T05:04:34.873Z,97.47
2016-08-21T05:05:34.181Z,97.28
2016-08-21T05:06:34.914Z,96.8
2016-08-21T05:07:34.238Z,96.99
2016-08-21T05:08:35.003Z,97.04
2016-08-21T05:09:34.973Z,97.23
2016-08-21T05:10:35.003Z,96.94
2016-08-21T05:11:35.022Z,96.66
2016-08-21T05:12:34.342Z,96.47
2016-08-21T05:13:34.371Z,96.47
2016-08-21T05:14:35.102Z,96.75
2016-08-21T05:15:34.402Z,96.37
2016-08-21T05:16:35.124Z,96.27
2016-08-21T05:17:35.160Z,96.37
2016-08-21T05:18:34.472Z,96.75
2016-08-21T05:19:35.192Z,96.75
2016-08-21T05:20:34.512Z,96.56
2016-08-21T05:21:35.253Z,96.8
2016-08-21T05:22:34.552Z,97.18
2016-08-21T05:23:35.292Z,97.66
2016-08-21T05:24:34.613Z,97.85
2016-08-21T05:25:34.633Z,98.14
2016-08-21T05:26:35.353Z,97.85
2016-08-21T05:27:35.369Z,98.52
2016-08-21T05:28:34.682Z,98.24
2016-08-21T05:29:34.706Z,97.95
2016-08-21T05:30:34.728Z,98.14
2016-08-21T05:31:34.762Z,97.56
2016-08-21T05:32:35.585Z,97.04
2016-08-21T05:33:35.514Z,96.08
2016-08-21T05:34:34.819Z,96.75
2016-08-21T05:35:35.560Z,95.79
2016-08-21T05:36:35.580Z,95.98
2016-08-21T05:37:34.893Z,95.46
2016-08-21T05:38:35.679Z,95.65
2016-08-21T05:39:34.942Z,95.07
2016-08-21T05:40:35.669Z,94.6
2016-08-21T05:41:35.676Z,94.98
2016-08-21T05:42:35.702Z,94.79
2016-08-21T05:43:35.740Z,94.31
2016-08-21T05:44:35.753Z,93.78
2016-08-21T05:45:35.074Z,93.59
2016-08-21T05:46:35.808Z,92.63
2016-08-21T05:47:35.117Z,93.11
2016-08-21T05:48:35.228Z,92.54
2016-08-21T05:49:35.868Z,91.91
2016-08-21T05:50:35.882Z,90.42
2016-08-21T05:51:35.209Z,88.89
2016-08-21T05:52:35.232Z,88.07
2016-08-21T05:53:35.960Z,87.49
2016-08-21T05:54:35.982Z,85.62
2016-08-21T05:55:36.012Z,80.75
2016-08-21T05:56:35.324Z,74.84
2016-08-21T05:57:36.062Z,69.39
2016-08-21T05:58:35.456Z,64.47
2016-08-21T05:59:35.395Z,60.72
2016-08-21T06:00:36.125Z,57.19
2016-08-21T06:01:36.154Z,54.07
2016-08-21T06:02:36.168Z,52.15
2016-08-21T06:03:35.633Z,50.07
2016-08-21T06:04:36.228Z,48.63
2016-08-21T06:05:35.615Z,48
2016-08-21T06:06:36.292Z,46.08
2016-08-21T06:07:35.654Z,44.17
2016-08-21T06:08:35.632Z,43.41
2016-08-21T06:09:36.357Z,42.55
2016-08-21T06:10:36.389Z,41.02
2016-08-21T06:11:35.709Z,40.84
2016-08-21T06:12:36.444Z,39.88
2016-08-21T06:13:35.775Z,38.26
2016-08-21T06:14:35.790Z,37.77
2016-08-21T06:15:35.823Z,37.77
2016-08-21T06:16:36.736Z,36.22
2016-08-21T06:17:36.747Z,36.04
2016-08-21T06:18:36.769Z,35.75
2016-08-21T06:19:36.742Z,35.76
2016-08-21T06:20:36.792Z,35.19
2016-08-21T06:21:36.790Z,34.7
2016-08-21T06:22:36.791Z,34.13
2016-08-21T06:23:36.814Z,33.94
2016-08-21T06:24:36.843Z,33.56
2016-08-21T06:25:36.922Z,32.97
2016-08-21T06:26:36.151Z,33.07
2016-08-21T06:27:36.916Z,31.73
2016-08-21T06:28:36.913Z,31.73
2016-08-21T06:29:36.961Z,32.71
2016-08-21T06:30:36.985Z,33.65
2016-08-21T06:31:37.013Z,33.54
2016-08-21T06:32:38.023Z,33.15
2016-08-21T06:33:37.074Z,32.95
2016-08-21T06:34:36.390Z,32.68
2016-08-21T06:35:37.133Z,32.78
2016-08-21T06:36:36.453Z,32.95
2016-08-21T06:37:37.192Z,33.62
2016-08-21T06:38:37.233Z,34.01
2016-08-21T06:39:36.543Z,33.62
2016-08-21T06:40:37.315Z,32.78
2016-08-21T06:41:37.333Z,31.73
2016-08-21T06:42:37.363Z,31.23
2016-08-21T06:43:37.373Z,30.66
2016-08-21T06:44:37.410Z,30.77
2016-08-21T06:45:37.482Z,30.49
2016-08-21T06:46:36.922Z,30.87
2016-08-21T06:47:37.506Z,30.38
2016-08-21T06:48:36.942Z,30.3
2016-08-21T06:49:37.572Z,30.1
2016-08-21T06:50:36.903Z,30.19
2016-08-21T06:51:36.928Z,29.33
2016-08-21T06:52:37.122Z,29.43
2016-08-21T06:53:37.006Z,29.23
2016-08-21T06:54:37.024Z,29.72
2016-08-21T06:55:37.057Z,28.93
2016-08-21T06:56:37.812Z,28.85
2016-08-21T06:57:37.842Z,28.36
2016-08-21T06:58:37.890Z,28.16
2016-08-21T06:59:37.912Z,27.68
2016-08-21T07:00:37.232Z,27.58
2016-08-21T07:01:37.964Z,27.85
2016-08-21T07:02:38.002Z,28.74
2016-08-21T07:03:37.402Z,28.14
2016-08-21T07:04:38.071Z,28.34
2016-08-21T07:05:38.103Z,28.91
2016-08-21T07:06:37.425Z,28.7
2016-08-21T07:07:37.462Z,29.21
2016-08-21T07:08:38.205Z,30.97
2016-08-21T07:09:38.233Z,33.92
2016-08-21T07:10:38.260Z,37.06
2016-08-21T07:11:38.299Z,39.92
2016-08-21T07:12:38.494Z,42.18
2016-08-21T07:13:38.372Z,42.6
2016-08-21T07:14:38.442Z,40.5
2016-08-21T07:15:38.422Z,37.83
2016-08-21T07:16:37.809Z,35.55
2016-08-21T07:17:38.502Z,33.95
2016-08-21T07:18:37.823Z,33.02
2016-08-21T07:19:38.572Z,32.27
2016-08-21T07:20:37.882Z,30.43
2016-08-21T07:21:38.632Z,29.87
2016-08-21T07:22:38.663Z,29.77
2016-08-21T07:23:38.022Z,29.38
2016-08-21T07:24:38.103Z,28.69
2016-08-21T07:25:38.049Z,29.87
2016-08-21T07:26:38.102Z,30.05
2016-08-21T07:27:38.114Z,30.71
2016-08-21T07:28:38.144Z,30.24
2016-08-21T07:29:38.180Z,29.86
2016-08-21T07:30:38.214Z,29.47
2016-08-21T07:31:38.956Z,28.7
2016-08-21T07:32:38.283Z,28.91
2016-08-21T07:33:39.024Z,29.09
2016-08-21T07:34:39.063Z,29.48
2016-08-21T07:35:39.096Z,28.63
2016-08-21T07:36:38.410Z,28.51
2016-08-21T07:37:38.460Z,28.7
2016-08-21T07:38:38.527Z,28.23
2016-08-21T07:39:39.211Z,28.03
2016-08-21T07:40:38.550Z,27.84
2016-08-21T07:41:39.292Z,28.63
2016-08-21T07:42:39.345Z,28.52
2016-08-21T07:43:38.650Z,28.34
2016-08-21T07:44:39.386Z,28.14
2016-08-21T07:45:39.433Z,28.65
2016-08-21T07:46:39.452Z,28.63
2016-08-21T07:47:39.504Z,28.23
2016-08-21T07:48:38.814Z,29.49
2016-08-21T07:49:39.565Z,29.1
2016-08-21T07:50:39.602Z,28.51
2016-08-21T07:51:39.634Z,29.68
2016-08-21T07:52:39.673Z,30.24
2016-08-21T07:53:39.694Z,30.42
2016-08-21T07:54:39.740Z,31.5
2016-08-21T07:55:39.763Z,31.89
2016-08-21T07:56:39.796Z,32.27
2016-08-21T07:57:40.043Z,33.54
2016-08-21T07:58:40.014Z,34.51
2016-08-21T07:59:40.199Z,36.02
2016-08-21T08:00:39.324Z,39.18
2016-08-21T08:01:40.022Z,42.41
2016-08-21T08:02:39.341Z,43.79
2016-08-21T08:03:40.033Z,45.98
2016-08-21T08:04:40.075Z,47.59
2016-08-21T08:05:39.392Z,50.94
2016-08-21T08:06:39.692Z,50.65
2016-08-21T08:07:40.161Z,51.01
2016-08-21T08:08:39.782Z,51.11
2016-08-21T08:09:39.594Z,53.02
2016-08-21T08:10:39.663Z,53.87
2016-08-21T08:11:39.582Z,54.03
2016-08-21T08:12:40.333Z,54.71
2016-08-21T08:13:40.344Z,55.66
2016-08-21T08:14:40.363Z,55.56
2016-08-21T08:15:40.401Z,55.15
2016-08-21T08:16:40.434Z,55.53
2016-08-21T08:17:40.453Z,56.02
2016-08-21T08:18:40.492Z,56.76
2016-08-21T08:19:39.833Z,57.15
2016-08-21T08:20:40.542Z,57.34
2016-08-21T08:21:40.617Z,57.54
2016-08-21T08:22:40.607Z,59.08
2016-08-21T08:23:39.932Z,59.28
2016-08-21T08:24:39.973Z,60.41
2016-08-21T08:25:39.983Z,60.21
2016-08-21T08:26:40.715Z,60.31
2016-08-21T08:27:40.755Z,60.99
2016-08-21T08:28:40.073Z,61.18
2016-08-21T08:29:40.794Z,61.27
2016-08-21T08:30:40.175Z,61.47
2016-08-21T08:31:40.867Z,60.89
2016-08-21T08:32:40.252Z,61.44
2016-08-21T08:33:40.914Z,62.02
2016-08-21T08:34:40.945Z,62.79
2016-08-21T08:35:40.970Z,63.43
2016-08-21T08:36:40.294Z,63.66
2016-08-21T08:37:40.323Z,62.89
2016-08-21T08:38:40.400Z,60.5
2016-08-21T08:39:41.095Z,59.92
2016-08-21T08:40:41.107Z,59.47
2016-08-21T08:41:41.161Z,58.92
2016-08-21T08:42:41.180Z,57.95
2016-08-21T08:43:41.193Z,58.04
2016-08-21T08:44:41.229Z,58.24
2016-08-21T08:45:41.253Z,58.44
2016-08-21T08:46:41.275Z,58.47
2016-08-21T08:47:41.291Z,57.88
2016-08-21T08:48:41.340Z,57.3
2016-08-21T08:49:40.659Z,58.17
2016-08-21T08:50:41.381Z,57.04
2016-08-21T08:51:41.412Z,56.26
2016-08-21T08:52:41.447Z,55.04
2016-08-21T08:53:40.763Z,55.42
2016-08-21T08:54:41.583Z,55.62
2016-08-21T08:55:40.822Z,55.81
2016-08-21T08:56:41.544Z,56.26
2016-08-21T08:57:40.871Z,56.94
2016-08-21T08:58:40.909Z,56.75
2016-08-21T08:59:41.632Z,56.36
2016-08-21T09:00:40.970Z,56.26
2016-08-21T09:01:40.973Z,56.16
2016-08-21T09:02:41.714Z,55.88
2016-08-21T09:03:41.034Z,55.58
2016-08-21T09:04:41.078Z,55.98
2016-08-21T09:05:41.807Z,55.68
2016-08-21T09:06:41.834Z,55.4
2016-08-21T09:07:41.865Z,54.26
2016-08-21T09:08:41.885Z,53.58
2016-08-21T09:09:41.914Z,53.39
2016-08-21T09:10:41.947Z,55.32
2016-08-21T09:11:41.974Z,55.62
2016-08-21T09:12:42.105Z,54.26
2016-08-21T09:13:41.323Z,55.2
2016-08-21T09:14:42.154Z,55.2
2016-08-21T09:15:42.104Z,56.46
2016-08-21T09:16:42.179Z,56.46
2016-08-21T09:17:42.154Z,56.85
2016-08-21T09:18:41.453Z,56.26
2016-08-21T09:19:42.193Z,56.85
2016-08-21T09:20:42.235Z,58.01
2016-08-21T09:21:41.553Z,57.4
2016-08-21T09:22:41.574Z,58.34
2016-08-21T09:23:42.355Z,58.63
2016-08-21T09:24:42.345Z,58.98
2016-08-21T09:25:41.663Z,60.34
2016-08-21T09:26:42.395Z,60.21
2016-08-21T09:27:41.717Z,60.24
2016-08-21T09:28:42.453Z,60.44
2016-08-21T09:29:42.482Z,60.44
2016-08-21T09:30:42.507Z,59.56
2016-08-21T09:31:42.537Z,58.92
2016-08-21T09:32:42.576Z,58.49
2016-08-21T09:33:42.585Z,57.04
2016-08-21T09:34:42.613Z,56.87
2016-08-21T09:35:42.643Z,55.54
2016-08-21T09:36:42.657Z,55.54
2016-08-21T09:37:41.994Z,55.35
2016-08-21T09:38:42.788Z,53.8
2016-08-21T09:39:42.755Z,54.48
2016-08-21T09:40:42.789Z,54.67
2016-08-21T09:41:42.945Z,54.58
2016-08-21T09:42:42.852Z,52.83
2016-08-21T09:43:42.898Z,54.19
2016-08-21T09:44:42.894Z,54.48
2016-08-21T09:45:42.934Z,54.86
2016-08-21T09:46:42.948Z,54.19
2016-08-21T09:47:42.274Z,51.98
2016-08-21T09:48:42.305Z,51.23
2016-08-21T09:49:43.023Z,51.81
2016-08-21T09:50:42.364Z,51.4
2016-08-21T09:51:43.090Z,51.4
2016-08-21T09:52:43.125Z,51.96
2016-08-21T09:53:42.437Z,51.76
2016-08-21T09:54:43.172Z,52.54
2016-08-21T09:55:43.205Z,53.09
2016-08-21T09:56:43.224Z,53.87
2016-08-21T09:57:43.255Z,54.06
2016-08-21T09:58:42.585Z,54.23
2016-08-21T09:59:43.325Z,54.74
2016-08-21T10:00:42.651Z,55
2016-08-21T10:01:43.380Z,56.59
2016-08-21T10:02:43.417Z,55.52
2016-08-21T10:03:42.730Z,54.64
2016-08-21T10:04:43.455Z,53.87
2016-08-21T10:05:43.487Z,53.77
2016-08-21T10:06:42.814Z,54.16
2016-08-21T10:07:43.625Z,54.62
2016-08-21T10:08:42.859Z,54.13
2016-08-21T10:09:43.607Z,54.62
2016-08-21T10:10:42.918Z,54.11
2016-08-21T10:11:43.660Z,54.21
2016-08-21T10:12:43.686Z,55.17
2016-08-21T10:13:43.725Z,55.66
2016-08-21T10:14:43.754Z,55.24
2016-08-21T10:15:43.777Z,55.82
2016-08-21T10:16:43.898Z,57.63
2016-08-21T10:17:43.842Z,59.63
2016-08-21T10:18:43.857Z,60.11
2016-08-21T10:19:43.173Z,60.11
2016-08-21T10:20:43.194Z,60.99
2016-08-21T10:21:43.237Z,60.5
2016-08-21T10:22:43.963Z,60.99
2016-08-21T10:23:43.988Z,60.02
2016-08-21T10:24:44.015Z,60.5
2016-08-21T10:25:43.331Z,60.63
2016-08-21T10:26:44.084Z,57.92
2016-08-21T10:27:43.394Z,57.15
2016-08-21T10:28:44.124Z,56.4
2016-08-21T10:29:44.202Z,55.66
2016-08-21T10:30:44.194Z,55.07
2016-08-21T10:31:43.512Z,55.2
2016-08-21T10:32:43.546Z,53.85
2016-08-21T10:33:44.264Z,55.27
2016-08-21T10:34:44.295Z,55.3
2016-08-21T10:35:44.358Z,55.58
2016-08-21T10:36:44.454Z,55.88
2016-08-21T10:37:44.379Z,56.43
2016-08-21T10:38:44.462Z,56.62
2016-08-21T10:39:43.729Z,57.11
2016-08-21T10:40:44.461Z,57.95
2016-08-21T10:41:44.489Z,58.98
2016-08-21T10:42:43.814Z,59.44
2016-08-21T10:43:44.572Z,59.63
2016-08-21T10:44:43.876Z,60.28
2016-08-21T10:45:43.954Z,60.83
2016-08-21T10:46:43.914Z,61.99
2016-08-21T10:47:44.674Z,63.4
2016-08-21T10:48:44.689Z,62.6
2016-08-21T10:49:44.710Z,63.85
2016-08-21T10:50:44.745Z,64.53
2016-08-21T10:51:44.763Z,64.82
2016-08-21T10:52:44.796Z,64.98
2016-08-21T10:53:44.808Z,64.59
2016-08-21T10:54:44.858Z,64.31
2016-08-21T10:55:44.868Z,64.59
2016-08-21T10:56:44.905Z,64.63
2016-08-21T10:57:44.950Z,65.01
2016-08-21T10:58:44.240Z,64.82
2016-08-21T10:59:44.269Z,64.72
2016-08-21T11:00:45.006Z,65.11
2016-08-21T11:01:45.034Z,65.5
2016-08-21T11:02:45.057Z,65.78
2016-08-21T11:03:45.085Z,65.98
2016-08-21T11:04:45.112Z,66.08
2016-08-21T11:05:45.132Z,66.75
2016-08-21T11:06:45.165Z,66.75
2016-08-21T11:07:45.179Z,66.66
2016-08-21T11:08:45.225Z,65.98
2016-08-21T11:09:45.239Z,66.56
2016-08-21T11:10:45.267Z,66.36
2016-08-21T11:11:44.593Z,67.2
2016-08-21T11:12:44.630Z,68.74
2016-08-21T11:13:45.351Z,69.42
2016-08-21T11:14:45.381Z,71.25
2016-08-21T11:15:44.700Z,71.54
2016-08-21T11:16:45.433Z,71.31
2016-08-21T11:17:45.448Z,70.86
2016-08-21T11:18:45.485Z,69.61
2016-08-21T11:19:45.515Z,68.55
2016-08-21T11:20:44.825Z,68.1
2016-08-21T11:21:45.550Z,66.88
2016-08-21T11:22:44.877Z,66.11
2016-08-21T11:23:44.907Z,65.75
2016-08-21T11:24:45.642Z,65.56
2016-08-21T11:25:45.649Z,66.14
2016-08-21T11:26:45.680Z,65.05
2016-08-21T11:27:45.007Z,65.63
2016-08-21T11:28:45.740Z,66.01
2016-08-21T11:29:45.059Z,66.11
2016-08-21T11:30:45.785Z,65.82
2016-08-21T11:31:45.114Z,66.11
2016-08-21T11:32:45.855Z,66.2
2016-08-21T11:33:45.859Z,65.27
2016-08-21T11:34:45.182Z,64.69
2016-08-21T11:35:45.925Z,65.27
2016-08-21T11:36:45.940Z,63.85
2016-08-21T11:37:45.980Z,63.37
2016-08-21T11:38:46.015Z,63.11
2016-08-21T11:39:46.028Z,62.53
2016-08-21T11:40:45.354Z,62.47
2016-08-21T11:41:45.377Z,61.21
2016-08-21T11:42:46.121Z,61.3
2016-08-21T11:43:46.151Z,62.24
2016-08-21T11:44:46.162Z,62.73
2016-08-21T11:45:46.194Z,62.98
2016-08-21T11:46:46.214Z,63.18
2016-08-21T11:47:46.232Z,62.73
2016-08-21T11:48:46.264Z,62.44
2016-08-21T11:49:45.678Z,61.6
2016-08-21T11:50:46.313Z,60.82
2016-08-21T11:51:46.357Z,61.02
2016-08-21T11:52:45.754Z,61.21
2016-08-21T11:53:45.691Z,61.21
2016-08-21T11:54:45.857Z,61.89
2016-08-21T11:55:45.833Z,62.18
2016-08-21T11:56:46.480Z,62.92
2016-08-21T11:57:46.515Z,63.21
2016-08-21T11:58:46.533Z,63.5
2016-08-21T11:59:45.851Z,63.43
2016-08-21T12:00:45.894Z,63.02
2016-08-21T12:01:46.623Z,63.53
2016-08-21T12:02:46.633Z,63.05
2016-08-21T12:03:46.669Z,61.33
2016-08-21T12:04:46.711Z,61.43
2016-08-21T12:05:46.735Z,61.15
2016-08-21T12:06:46.045Z,60.21
2016-08-21T12:07:46.785Z,59.72
2016-08-21T12:08:46.807Z,60.3
2016-08-21T12:09:46.224Z,61.18
2016-08-21T12:10:46.862Z,61.56
2016-08-21T12:11:46.190Z,61.43
2016-08-21T12:12:46.226Z,61.92
2016-08-21T12:13:46.245Z,62.85
2016-08-21T12:14:46.265Z,62.95
2016-08-21T12:15:46.295Z,63.6
2016-08-21T12:16:46.322Z,64.37
2016-08-21T12:17:47.055Z,65.01
2016-08-21T12:18:47.074Z,65.3
2016-08-21T12:19:47.104Z,64.92
2016-08-21T12:20:47.132Z,65.2
2016-08-21T12:21:46.454Z,65.34
2016-08-21T12:22:47.195Z,64.66
2016-08-21T12:23:47.242Z,63.4
2016-08-21T12:24:47.246Z,62.18
2016-08-21T12:25:47.279Z,62.37
2016-08-21T12:26:46.589Z,62.11
2016-08-21T12:27:47.324Z,61.63
2016-08-21T12:28:47.369Z,61.76
2016-08-21T12:29:47.386Z,60.78
2016-08-21T12:30:46.704Z,61.46
2016-08-21T12:31:46.724Z,61.18
2016-08-21T12:32:47.464Z,60.66
2016-08-21T12:33:47.487Z,60.47
2016-08-21T12:34:47.536Z,61.15
2016-08-21T12:35:47.588Z,61.4
2016-08-21T12:36:47.571Z,62.34
2016-08-21T12:37:46.895Z,62.92
2016-08-21T12:38:46.967Z,64.18
2016-08-21T12:39:47.664Z,64.76
2016-08-21T12:40:47.678Z,64.08
2016-08-21T12:41:47.712Z,64.76
2016-08-21T12:42:47.842Z,63.31
2016-08-21T12:43:47.774Z,63.82
2016-08-21T12:44:47.797Z,62.95
2016-08-21T12:45:47.111Z,61.98
2016-08-21T12:46:47.856Z,60.95
2016-08-21T12:47:47.868Z,61.24
2016-08-21T12:48:47.186Z,60.44
2016-08-21T12:49:47.214Z,61.02
2016-08-21T12:50:47.251Z,61.5
2016-08-21T12:51:47.296Z,60.63
2016-08-21T12:52:47.991Z,60.72
2016-08-21T12:53:47.333Z,60.69
2016-08-21T12:54:48.070Z,61.18